createdAt,value
2023-02-25T00:01:00.314Z,18.5
2023-02-25T00:07:07.781Z,18.4
2023-02-25T00:12:45.338Z,18.3
2023-02-25T00:18:55.109Z,20.5
2023-02-25T00:24:57.287Z,21.8
2023-02-25T00:30:49.286Z,19.7
2023-02-25T00:36:43.087Z,19.1
2023-02-25T00:42:42.066Z,18.8
2023-02-25T00:54:19.294Z,18.5
2023-02-25T01:00:12.337Z,18.4
2023-02-25T01:06:12.447Z,18.3
2023-02-25T01:12:07.973Z,21.2
2023-02-25T01:23:08.593Z,19.6
2023-02-25T01:29:02.072Z,19
2023-02-25T01:34:57.297Z,18.6
2023-02-25T01:40:50.062Z,18.6
2023-02-25T01:46:43.234Z,18.4
2023-02-25T01:52:36.589Z,18.3
2023-02-25T01:58:29.945Z,19.6
2023-02-25T02:04:22.671Z,21.6
2023-02-25T02:10:17.116Z,20.6
2023-02-25T02:16:10.141Z,19.3
2023-02-25T02:22:03.285Z,18.8
2023-02-25T02:27:56.253Z,18.6
2023-02-25T02:33:33.890Z,18.4
2023-02-25T02:39:26.619Z,19.4
2023-02-25T02:45:04.145Z,21.4
2023-02-25T02:50:56.963Z,20.8
2023-02-25T02:56:34.663Z,19.3
2023-02-25T03:02:27.710Z,18.8
2023-02-25T03:08:05.957Z,18.5
2023-02-25T03:13:43.157Z,18.4
2023-02-25T03:19:05.813Z,18.3
2023-02-25T03:24:44.573Z,21
2023-02-25T03:30:21.159Z,21.7
2023-02-25T03:35:59.395Z,19.6
2023-02-25T03:41:36.469Z,18.9
2023-02-25T03:47:14.883Z,18.6
2023-02-25T03:52:37.345Z,18.4
2023-02-25T03:58:15.294Z,18.3
2023-02-25T04:04:08.420Z,20.1
2023-02-25T04:09:46.376Z,21.6
2023-02-25T04:15:22.746Z,20.4
2023-02-25T04:21:01.106Z,19.2
2023-02-25T04:32:17.819Z,18.4
2023-02-25T04:38:11.866Z,18.4
2023-02-25T04:44:05.524Z,18.4
2023-02-25T04:49:59.648Z,21
2023-02-25T04:55:53.523Z,21.6
2023-02-25T05:01:46.044Z,19.5
2023-02-25T05:07:39.246Z,18.8
2023-02-25T05:13:34.623Z,18.4
2023-02-25T05:18:57.896Z,18.4
2023-02-25T05:24:51.230Z,18.1
2023-02-25T05:30:44.221Z,20.5
2023-02-25T05:36:23.130Z,21.6
2023-02-25T05:41:59.683Z,20
2023-02-25T05:47:53.143Z,19
2023-02-25T05:53:29.857Z,18.6
2023-02-25T05:59:06.874Z,18.4
2023-02-25T06:04:44.507Z,18.3
2023-02-25T06:10:22.352Z,19.3
2023-02-25T06:15:59.467Z,21.2
2023-02-25T06:27:31.371Z,19.3
2023-02-25T06:38:47.989Z,18.4
2023-02-25T06:44:41.530Z,18.3
2023-02-25T06:50:20.446Z,18.1
2023-02-25T06:55:57.107Z,20.6
2023-02-25T07:01:35.656Z,21.9
2023-02-25T07:07:30.387Z,19.9
2023-02-25T07:12:52.416Z,18.9
2023-02-25T07:18:15.291Z,18.5
2023-02-25T07:23:52.111Z,18.4
2023-02-25T07:29:44.712Z,18.3
2023-02-25T07:35:39.396Z,18
2023-02-25T07:41:32.452Z,17.8
2023-02-25T07:47:25.170Z,17.8
2023-02-25T07:53:18.059Z,21.1
2023-02-25T07:59:14.374Z,19.5
2023-02-25T08:05:08.398Z,18.9
2023-02-25T08:11:02.945Z,18.6
2023-02-25T08:16:55.942Z,18.3
2023-02-25T08:22:49.872Z,18.1
2023-02-25T08:28:43.308Z,18
2023-02-25T08:40:18.085Z,19.6
2023-02-25T08:46:11.654Z,19
2023-02-25T08:52:04.578Z,18.6
2023-02-25T08:57:57.814Z,18.3
2023-02-25T09:03:50.188Z,18.1
2023-02-25T09:09:46.238Z,17.9
2023-02-25T09:21:30.342Z,19.7
2023-02-25T09:27:22.498Z,19
2023-02-25T09:33:16.390Z,18.6
2023-02-25T09:39:09.674Z,18.3
2023-02-25T09:45:01.822Z,18.1
2023-02-25T09:50:42.855Z,17.9
2023-02-25T09:56:20.503Z,20.7
2023-02-25T10:01:58.234Z,20
2023-02-25T10:07:36.401Z,19.1
2023-02-25T10:13:13.858Z,18.8
2023-02-25T10:18:40.916Z,18.5
2023-02-25T10:24:33.217Z,18.2
2023-02-25T10:30:09.818Z,18
2023-02-25T10:36:03.569Z,20.6
2023-02-25T10:41:56.494Z,20.2
2023-02-25T10:47:49.734Z,19.3
2023-02-25T10:53:48.502Z,18.9
2023-02-25T10:59:41.741Z,18.6
2023-02-25T11:05:35.814Z,18.4
2023-02-25T11:11:29.172Z,18.3
2023-02-25T11:17:42.043Z,21.6
2023-02-25T11:23:35.451Z,19.7
2023-02-25T11:29:26.907Z,19.2
2023-02-25T11:35:24.454Z,18.8
2023-02-25T11:41:20.861Z,18.6
2023-02-25T11:47:13.976Z,18.3
2023-02-25T11:53:06.641Z,20.4
2023-02-25T11:58:28.952Z,20.6
2023-02-25T12:04:21.584Z,19.5
2023-02-25T12:10:29.161Z,19.1
2023-02-25T12:21:58.892Z,18.4
2023-02-25T12:27:52.024Z,18.3
2023-02-25T12:33:44.902Z,21.3
2023-02-25T12:39:40.302Z,20
2023-02-25T12:45:34.330Z,19.3
2023-02-25T12:51:27.728Z,18.9
2023-02-25T13:03:00.396Z,18.4
2023-02-25T13:08:53.636Z,19.6
2023-02-25T13:15:12.224Z,21.1
2023-02-25T13:21:05.640Z,19.6
2023-02-25T13:26:58.582Z,19.3
2023-02-25T13:32:52.350Z,19
2023-02-25T13:44:22.764Z,18.4
2023-02-25T13:50:15.751Z,18.2
2023-02-25T13:56:11.503Z,17.9
2023-02-25T14:02:03.874Z,17.8
2023-02-25T14:07:56.159Z,17.5
2023-02-25T14:13:53.655Z,17.3
2023-02-25T14:19:47.158Z,17.1
2023-02-25T14:31:03.663Z,16.9
2023-02-25T14:36:56.729Z,16.7
2023-02-25T14:42:49.971Z,16.6
2023-02-25T14:48:42.733Z,16.4
2023-02-25T14:54:35.680Z,16.3
2023-02-25T15:00:28.179Z,16.3
2023-02-25T15:06:23.379Z,16.1
2023-02-25T15:12:16.871Z,16.1
2023-02-25T15:18:09.642Z,16.1
2023-02-25T15:23:48.304Z,16.2
2023-02-25T15:29:40.559Z,16.2
2023-02-25T15:35:35.562Z,16.3
2023-02-25T15:41:28.113Z,16.5
2023-02-25T15:47:23.395Z,16.7
2023-02-25T15:52:45.021Z,16.8
2023-02-25T16:04:21.758Z,17.1
2023-02-25T16:10:13.944Z,17.2
2023-02-25T16:16:06.827Z,17.3
2023-02-25T16:22:01.266Z,17.4
2023-02-25T16:27:53.257Z,17.4
2023-02-25T16:33:47.544Z,17.6
2023-02-25T16:39:29.873Z,17.6
2023-02-25T16:45:30.578Z,17.6
2023-02-25T16:51:24.619Z,17.7
2023-02-25T16:57:18.064Z,17.7
2023-02-25T17:02:55.156Z,17.7
2023-02-25T17:08:48.991Z,17.7
2023-02-25T17:14:41.476Z,17.8
2023-02-25T17:20:19.731Z,17.7
2023-02-25T17:26:14.329Z,17.8
2023-02-25T17:32:08.709Z,17.8
2023-02-25T17:38:02.744Z,17.8
2023-02-25T17:43:58.404Z,17.9
2023-02-25T17:49:52.685Z,17.9
2023-02-25T17:55:46.718Z,17.9
2023-02-25T18:01:42.529Z,17.9
2023-02-25T18:07:37.181Z,18
2023-02-25T18:13:31.167Z,18.1
2023-02-25T18:19:35.819Z,18.1
2023-02-25T18:25:29.713Z,18.3
2023-02-25T18:31:24.180Z,18.3
2023-02-25T18:37:05.059Z,18.4
2023-02-25T18:42:59.359Z,18.4
2023-02-25T18:48:53.710Z,18.6
2023-02-25T18:54:48.485Z,18.6
2023-02-25T19:00:41.981Z,18.8
2023-02-25T19:06:19.854Z,18.9
2023-02-25T19:12:13.834Z,18.9
2023-02-25T19:18:08.569Z,18.9
2023-02-25T19:24:01.559Z,19
2023-02-25T19:29:54.518Z,19.1
2023-02-25T19:35:34.599Z,19.2
2023-02-25T19:41:27.555Z,19.3
2023-02-25T19:47:21.913Z,19.2
2023-02-25T19:53:15.657Z,19.1
2023-02-25T19:59:09.631Z,19.1
2023-02-25T20:05:03.656Z,18.9
2023-02-25T20:10:58.645Z,18.8
2023-02-25T20:16:51.991Z,18.8
2023-02-25T20:22:47.097Z,18.6
2023-02-25T20:28:42.881Z,18.6
2023-02-25T20:34:39.526Z,18.5
2023-02-25T20:40:17.854Z,18.4
2023-02-25T20:46:13.652Z,18.4
2023-02-25T20:52:06.706Z,18.3
2023-02-25T20:57:59.731Z,18.1
2023-02-25T21:03:53.210Z,18.1
2023-02-25T21:09:47.892Z,19.6
2023-02-25T21:15:42.596Z,20.9
2023-02-25T21:21:35.907Z,20.9
2023-02-25T21:27:29.780Z,20.8
2023-02-25T21:33:25.870Z,20.3
2023-02-25T21:39:18.745Z,20.1
2023-02-25T21:45:11.358Z,19.8
2023-02-25T21:51:04.541Z,19.4
2023-02-25T21:56:57.650Z,19.2
2023-02-25T22:02:50.736Z,18.9
2023-02-25T22:08:44.535Z,19.1
2023-02-25T22:14:37.217Z,21.1
2023-02-25T22:20:29.891Z,20.3
2023-02-25T22:26:24.815Z,19.9
2023-02-25T22:32:18.999Z,19.6
2023-02-25T22:37:55.796Z,19.3
2023-02-25T22:43:48.758Z,19.1
2023-02-25T22:49:26.483Z,18.8
2023-02-25T22:55:17.666Z,18.6
2023-02-25T23:01:10.183Z,22.1
2023-02-25T23:07:16.985Z,20.6
2023-02-25T23:13:11.115Z,19.9
2023-02-25T23:19:04.419Z,19.6
2023-02-25T23:24:56.873Z,19.3
2023-02-25T23:30:48.985Z,19
2023-02-25T23:36:43.397Z,18.8
2023-02-25T23:42:37.199Z,20.4
2023-02-25T23:48:33.767Z,21.4
2023-02-25T23:54:27.264Z,20
